Sebastopol, CA (95473)

3:02 PM PDT on September 22, 2014 (GMT -0700)
Sebastopol - In town | Change Station
CLOSE
Current Station
Personal Weather Station
Location: Sebastopol, CA
Elevation: 128 ft
Nearby Weather Stations

Elev 128 ft 38.40 °N, 122.83 °W | Updated 1 minute ago

Clear
Clear
80.1 °F
Feels Like 80 °F
N
1.0
Wind Variable Wind from ESE
Gusts 1.0 mph

Today
High -- | Low -- °F
--% Chance of Precip.
Yesterday
High -- | Low -- °F
Precip. -- in
6:59 AM 7:08 PM
Waning Crescent, 2% visible
Pressure 29.95 in
Visibility 10.0 miles
Clouds Few 22000 ft
Heat Index 80 °F
Dew Point 56 °F
Humidity 43%
Rainfall 0.00 in
Snow Depth 0 in , 0 in , 0 in
UV 7 out of 12
Pollen 3.70 out of 12
Air Quality Not available.
Flu Activity Not available.
METAR KSTS 222053Z 21004KT 10SM FEW220 27/13 A2997 RMK AO2 SLP141 T02720133 56022

More Conditions Fewer Conditions

Pressure 29.95 in
Visibility 10.0 miles
Clouds Few 22000 ft
Heat Index 80 °F
Dew Point 56 °F
Humidity 43%
Rainfall 0.00 in
Snow Depth 0 in , 0 in , 0 in
UV 7 out of 12
Pollen 3.70 out of 12
Air Quality Not available.
Flu Activity Not available.
METAR KSTS 222053Z 21004KT 10SM FEW220 27/13 A2997 RMK AO2 SLP141 T02720133 56022

More Conditions Fewer Conditions

10-Day Weather Forecast

Almanac

Astronomy

Sep. 22, 2014 Rise Set
Actual Time 6:59 AM PDT 7:08 PM PDT
Civil Twilight 6:32 AM PDT 7:34 PM PDT
Nautical Twilight 6:01 AM PDT 8:05 PM PDT
Astronomical Twilight 5:30 AM PDT 8:36 PM PDT
Moon 5:33 AM PDT 6:18 PM PDT
Length of Visible Light 13h 01m
Length of Day
12h 09m
Tomorrow will be 2m 28s shorter.
Waning Crescent, 2% of the Moon is Illuminated
Today
Waning Crescent
Sep 24
New
Oct 1
First Quarter
Oct 8
Full
Oct 15
Last Quarter

Today's Extremes

State Highs State Lows

Community

WunderPhotos

Upload Photos

1,755,535 photos uploaded!

WunderBlogs® & News

By Dr. Jeff Masters
Director of Meteorology, Weather Underground
By Kari Strenfel
Meteorologist, Weather Underground
By Christopher C. Burt
Weather Historian, Weather Underground
September 22, 2014
September 22, 2014
September 22, 2014

Nearby

Air Quality

  Air Quality AQ Index Pollutant
Monday Good
PM2.5
Tuesday Good
PM2.5
Wednesday Good
PM2.5
Thursday Good
OZONE
Friday Good
OZONE
Saturday Good
OZONE

Snow Depth

Station Depth Elevation
Summit Meadow 0 in 9122 ft
Rubicon #2 0 in 7500 ft
Leavitt Meadows 0 in 7200 ft
Adin Mountain 0 in 6200 ft
CSS Lab 3 in 6900 ft

Earthquake Activity

City Distance Mag. Time & Date
Yountville, California 24 miles 2.6 1:17 PM PDT
2014-09-21
Cloverdale, California 30 miles 2.5 9:15 PM PDT
2014-09-20
Livermore, California 77 miles 2.6 3:37 AM PDT
2014-09-19
Minimum magnitude displayed is 2.5.

Coastal Water Temperatures

Place Temperature
Point Reyes, CA 66.0 °F
Arena Cove, CA 64.0 °F
San Francisco, CA 66.0 °F
Richmond, CA 66.9 °F

Nearby Weather Stations